Terminal Aerodrome Forecast
Issued by NWS

Home | Current Version | Previous Version | Text Only | Print | Product List | Glossary On
Versions: 1 2 3 4 5 6 7 8 9 10 11 12 13 14 15 16
924
FTUS42 TJSJ 050525
TAFJSJ
TAF
TJSJ 050525Z 0506/0606 11005KT P6SM VCSH FEW030 SCT080
     FM051400 09012KT P6SM SCT025 SCT060
     FM052300 12005KT P6SM FEW018 SCT030 SCT060=

USA.gov is the U.S. government's official web portal to all federal, state and local government web resources and services.